sensor_id;sensor_type;location;lat;lon;timestamp;pressure;altitude;pressure_sealevel;temperature;humidity
45071;BME280;30836;48.906;9.140;2024-01-10T00:00:29;994.79;;;6.02;29.07
45071;BME280;30836;48.906;9.140;2024-01-10T00:01:29;994.79;;;6.05;29.06
45071;BME280;30836;48.906;9.140;2024-01-10T00:02:30;994.77;;;6.08;29.09
45071;BME280;30836;48.906;9.140;2024-01-10T00:03:30;994.79;;;6.10;29.08
45071;BME280;30836;48.906;9.140;2024-01-10T00:04:30;994.79;;;6.13;29.04
45071;BME280;30836;48.906;9.140;2024-01-10T00:05:31;994.79;;;6.13;28.93
45071;BME280;30836;48.906;9.140;2024-01-10T00:06:31;994.77;;;6.13;28.86
45071;BME280;30836;48.906;9.140;2024-01-10T00:07:32;994.77;;;6.13;28.82
45071;BME280;30836;48.906;9.140;2024-01-10T00:08:32;994.77;;;6.13;28.79
45071;BME280;30836;48.906;9.140;2024-01-10T00:09:32;994.76;;;6.13;28.75
45071;BME280;30836;48.906;9.140;2024-01-10T00:10:33;994.74;;;6.13;28.81
45071;BME280;30836;48.906;9.140;2024-01-10T00:11:33;994.74;;;6.13;28.80
45071;BME280;30836;48.906;9.140;2024-01-10T00:12:34;994.72;;;6.14;28.73
45071;BME280;30836;48.906;9.140;2024-01-10T00:13:34;994.74;;;6.15;28.70
45071;BME280;30836;48.906;9.140;2024-01-10T00:14:35;994.72;;;6.16;28.68
45071;BME280;30836;48.906;9.140;2024-01-10T00:15:35;994.70;;;6.18;28.68
45071;BME280;30836;48.906;9.140;2024-01-10T00:16:36;994.70;;;6.18;28.61
45071;BME280;30836;48.906;9.140;2024-01-10T00:17:36;994.70;;;6.19;28.59
45071;BME280;30836;48.906;9.140;2024-01-10T00:18:37;994.70;;;6.21;28.63
45071;BME280;30836;48.906;9.140;2024-01-10T00:19:37;994.72;;;6.21;28.65
45071;BME280;30836;48.906;9.140;2024-01-10T00:20:37;994.70;;;6.21;28.67
45071;BME280;30836;48.906;9.140;2024-01-10T00:21:38;994.70;;;6.21;28.65
45071;BME280;30836;48.906;9.140;2024-01-10T00:22:38;994.72;;;6.18;28.55
45071;BME280;30836;48.906;9.140;2024-01-10T00:23:39;994.70;;;6.14;28.53
45071;BME280;30836;48.906;9.140;2024-01-10T00:24:39;994.70;;;6.11;28.59
45071;BME280;30836;48.906;9.140;2024-01-10T00:25:40;994.70;;;6.07;28.61
45071;BME280;30836;48.906;9.140;2024-01-10T00:26:40;994.72;;;6.05;28.64
45071;BME280;30836;48.906;9.140;2024-01-10T00:27:41;994.70;;;6.05;28.62
45071;BME280;30836;48.906;9.140;2024-01-10T00:28:41;994.70;;;6.06;28.61
45071;BME280;30836;48.906;9.140;2024-01-10T00:29:42;994.66;;;6.07;28.70
45071;BME280;30836;48.906;9.140;2024-01-10T00:30:42;994.66;;;6.08;28.68
45071;BME280;30836;48.906;9.140;2024-01-10T00:31:43;994.66;;;6.09;28.73
45071;BME280;30836;48.906;9.140;2024-01-10T00:32:43;994.66;;;6.08;28.77
45071;BME280;30836;48.906;9.140;2024-01-10T00:33:44;994.64;;;6.08;28.85
45071;BME280;30836;48.906;9.140;2024-01-10T00:34:44;994.64;;;6.07;28.90
45071;BME280;30836;48.906;9.140;2024-01-10T00:35:44;994.64;;;6.05;28.87
45071;BME280;30836;48.906;9.140;2024-01-10T00:36:45;994.62;;;6.03;28.98
45071;BME280;30836;48.906;9.140;2024-01-10T00:37:45;994.62;;;5.98;28.98
45071;BME280;30836;48.906;9.140;2024-01-10T00:38:46;994.62;;;5.93;29.14
45071;BME280;30836;48.906;9.140;2024-01-10T00:39:46;994.62;;;5.91;29.11
45071;BME280;30836;48.906;9.140;2024-01-10T00:40:46;994.62;;;5.91;29.07
45071;BME280;30836;48.906;9.140;2024-01-10T00:41:47;994.62;;;5.92;29.10
45071;BME280;30836;48.906;9.140;2024-01-10T00:42:47;994.62;;;5.93;29.17
45071;BME280;30836;48.906;9.140;2024-01-10T00:43:48;994.60;;;5.93;29.17
45071;BME280;30836;48.906;9.140;2024-01-10T00:44:48;994.60;;;5.95;29.20
45071;BME280;30836;48.906;9.140;2024-01-10T00:45:49;994.62;;;5.95;29.20
45071;BME280;30836;48.906;9.140;2024-01-10T00:46:49;994.60;;;5.92;29.21
45071;BME280;30836;48.906;9.140;2024-01-10T00:47:50;994.58;;;5.93;29.25
45071;BME280;30836;48.906;9.140;2024-01-10T00:48:50;994.56;;;5.94;29.27
45071;BME280;30836;48.906;9.140;2024-01-10T00:49:51;994.58;;;5.93;29.22
45071;BME280;30836;48.906;9.140;2024-01-10T00:50:51;994.58;;;5.91;29.41
45071;BME280;30836;48.906;9.140;2024-01-10T00:51:51;994.56;;;5.91;29.43
45071;BME280;30836;48.906;9.140;2024-01-10T00:52:52;994.58;;;5.93;29.50
45071;BME280;30836;48.906;9.140;2024-01-10T00:53:52;994.58;;;5.94;29.44
45071;BME280;30836;48.906;9.140;2024-01-10T00:54:53;994.62;;;5.95;29.41
45071;BME280;30836;48.906;9.140;2024-01-10T00:55:53;994.60;;;5.97;29.48
45071;BME280;30836;48.906;9.140;2024-01-10T00:56:53;994.58;;;5.98;29.46
45071;BME280;30836;48.906;9.140;2024-01-10T00:57:56;994.54;;;5.97;29.36
45071;BME280;30836;48.906;9.140;2024-01-10T00:58:57;994.54;;;5.96;29.35
45071;BME280;30836;48.906;9.140;2024-01-10T00:59:57;994.54;;;5.95;29.28
45071;BME280;30836;48.906;9.140;2024-01-10T01:00:58;994.56;;;5.96;29.30
45071;BME280;30836;48.906;9.140;2024-01-10T01:01:58;994.56;;;5.99;29.28
45071;BME280;30836;48.906;9.140;2024-01-10T01:02:59;994.58;;;6.03;29.36
45071;BME280;30836;48.906;9.140;2024-01-10T01:03:59;994.58;;;6.05;29.38
45071;BME280;30836;48.906;9.140;2024-01-10T01:05:00;994.62;;;6.07;29.38
45071;BME280;30836;48.906;9.140;2024-01-10T01:06:00;994.62;;;6.08;29.40
45071;BME280;30836;48.906;9.140;2024-01-10T01:07:01;994.62;;;6.08;29.43
45071;BME280;30836;48.906;9.140;2024-01-10T01:08:01;994.64;;;6.09;29.40
45071;BME280;30836;48.906;9.140;2024-01-10T01:09:02;994.66;;;6.10;29.37
45071;BME280;30836;48.906;9.140;2024-01-10T01:10:02;994.66;;;6.10;29.38
45071;BME280;30836;48.906;9.140;2024-01-10T01:11:03;994.68;;;6.11;29.44
45071;BME280;30836;48.906;9.140;2024-01-10T01:12:04;994.70;;;6.13;29.39
45071;BME280;30836;48.906;9.140;2024-01-10T01:13:04;994.70;;;6.15;29.35
45071;BME280;30836;48.906;9.140;2024-01-10T01:14:05;994.72;;;6.14;29.43
45071;BME280;30836;48.906;9.140;2024-01-10T01:15:05;994.74;;;6.12;29.45
45071;BME280;30836;48.906;9.140;2024-01-10T01:16:06;994.74;;;6.12;29.47
45071;BME280;30836;48.906;9.140;2024-01-10T01:17:07;994.74;;;6.15;29.41
45071;BME280;30836;48.906;9.140;2024-01-10T01:18:07;994.74;;;6.17;29.40
45071;BME280;30836;48.906;9.140;2024-01-10T01:19:07;994.74;;;6.17;29.39
45071;BME280;30836;48.906;9.140;2024-01-10T01:20:08;994.76;;;6.18;29.33
45071;BME280;30836;48.906;9.140;2024-01-10T01:21:09;994.77;;;6.16;29.20
45071;BME280;30836;48.906;9.140;2024-01-10T01:22:09;994.79;;;6.14;29.27
45071;BME280;30836;48.906;9.140;2024-01-10T01:23:09;994.77;;;6.14;29.30
45071;BME280;30836;48.906;9.140;2024-01-10T01:24:10;994.77;;;6.16;29.37
45071;BME280;30836;48.906;9.140;2024-01-10T01:25:10;994.77;;;6.17;29.40
45071;BME280;30836;48.906;9.140;2024-01-10T01:26:11;994.79;;;6.17;29.45
45071;BME280;30836;48.906;9.140;2024-01-10T01:27:11;994.79;;;6.18;29.48
45071;BME280;30836;48.906;9.140;2024-01-10T01:28:12;994.81;;;6.18;29.50
45071;BME280;30836;48.906;9.140;2024-01-10T01:29:12;994.85;;;6.17;29.56
45071;BME280;30836;48.906;9.140;2024-01-10T01:30:13;994.83;;;6.15;29.68
45071;BME280;30836;48.906;9.140;2024-01-10T01:31:13;994.83;;;6.14;29.79
45071;BME280;30836;48.906;9.140;2024-01-10T01:32:13;994.81;;;6.14;29.82
45071;BME280;30836;48.906;9.140;2024-01-10T01:33:14;994.81;;;6.15;29.86
45071;BME280;30836;48.906;9.140;2024-01-10T01:34:14;994.81;;;6.15;29.99
45071;BME280;30836;48.906;9.140;2024-01-10T01:35:15;994.79;;;6.16;29.96
45071;BME280;30836;48.906;9.140;2024-01-10T01:36:15;994.79;;;6.17;29.90
45071;BME280;30836;48.906;9.140;2024-01-10T01:37:15;994.79;;;6.17;29.92
45071;BME280;30836;48.906;9.140;2024-01-10T01:38:16;994.77;;;6.17;29.98
45071;BME280;30836;48.906;9.140;2024-01-10T01:39:17;994.79;;;6.16;30.02
45071;BME280;30836;48.906;9.140;2024-01-10T01:40:20;994.76;;;6.16;30.03
45071;BME280;30836;48.906;9.140;2024-01-10T01:41:20;994.76;;;6.17;30.01
45071;BME280;30836;48.906;9.140;2024-01-10T01:42:21;994.76;;;6.18;30.01
45071;BME280;30836;48.906;9.140;2024-01-10T01:43:22;994.76;;;6.17;30.00
45071;BME280;30836;48.906;9.140;2024-01-10T01:44:24;994.76;;;6.16;30.06
45071;BME280;30836;48.906;9.140;2024-01-10T01:45:24;994.74;;;6.16;30.00
45071;BME280;30836;48.906;9.140;2024-01-10T01:46:25;994.74;;;6.15;30.02
45071;BME280;30836;48.906;9.140;2024-01-10T01:47:25;994.74;;;6.15;30.12
45071;BME280;30836;48.906;9.140;2024-01-10T01:48:26;994.74;;;6.14;30.17
45071;BME280;30836;48.906;9.140;2024-01-10T01:49:27;994.74;;;6.14;30.18
45071;BME280;30836;48.906;9.140;2024-01-10T01:50:28;994.72;;;6.14;30.13
45071;BME280;30836;48.906;9.140;2024-01-10T01:51:29;994.70;;;6.16;30.16
45071;BME280;30836;48.906;9.140;2024-01-10T01:52:32;994.68;;;6.15;30.17
45071;BME280;30836;48.906;9.140;2024-01-10T01:53:33;994.68;;;6.13;30.13
45071;BME280;30836;48.906;9.140;2024-01-10T01:54:35;994.66;;;6.10;30.18
45071;BME280;30836;48.906;9.140;2024-01-10T01:54:45;994.68;;;6.07;30.19
45071;BME280;30836;48.906;9.140;2024-01-10T01:55:47;994.62;;;6.08;30.21
45071;BME280;30836;48.906;9.140;2024-01-10T01:55:58;994.62;;;6.05;30.20
45071;BME280;30836;48.906;9.140;2024-01-10T01:57:02;994.64;;;6.03;30.26
45071;BME280;30836;48.906;9.140;2024-01-10T01:58:03;994.62;;;5.97;30.37
45071;BME280;30836;48.906;9.140;2024-01-10T01:59:06;994.60;;;5.86;30.56
45071;BME280;30836;48.906;9.140;2024-01-10T02:00:08;994.58;;;5.74;30.80
45071;BME280;30836;48.906;9.140;2024-01-10T02:01:09;994.58;;;5.61;30.96
45071;BME280;30836;48.906;9.140;2024-01-10T02:02:11;994.60;;;5.55;31.07
45071;BME280;30836;48.906;9.140;2024-01-10T02:03:13;994.62;;;5.58;31.11
45071;BME280;30836;48.906;9.140;2024-01-10T02:04:13;994.62;;;5.63;30.90
45071;BME280;30836;48.906;9.140;2024-01-10T02:05:14;994.60;;;5.65;30.89
45071;BME280;30836;48.906;9.140;2024-01-10T02:06:15;994.64;;;5.67;30.96
45071;BME280;30836;48.906;9.140;2024-01-10T02:07:15;994.62;;;5.69;30.93
45071;BME280;30836;48.906;9.140;2024-01-10T02:08:16;994.66;;;5.71;30.91
45071;BME280;30836;48.906;9.140;2024-01-10T02:09:16;994.66;;;5.76;30.84
45071;BME280;30836;48.906;9.140;2024-01-10T02:10:17;994.64;;;5.80;30.70
45071;BME280;30836;48.906;9.140;2024-01-10T02:11:19;994.66;;;5.84;30.70
45071;BME280;30836;48.906;9.140;2024-01-10T02:12:20;994.66;;;5.89;30.75
45071;BME280;30836;48.906;9.140;2024-01-10T02:13:21;994.68;;;5.92;30.63
45071;BME280;30836;48.906;9.140;2024-01-10T02:14:22;994.66;;;5.94;30.60
45071;BME280;30836;48.906;9.140;2024-01-10T02:15:23;994.66;;;5.94;30.62
45071;BME280;30836;48.906;9.140;2024-01-10T02:16:24;994.64;;;5.93;30.68
45071;BME280;30836;48.906;9.140;2024-01-10T02:17:24;994.64;;;5.93;30.64
45071;BME280;30836;48.906;9.140;2024-01-10T02:18:25;994.64;;;5.93;30.66
45071;BME280;30836;48.906;9.140;2024-01-10T02:19:25;994.64;;;5.94;30.75
45071;BME280;30836;48.906;9.140;2024-01-10T02:20:25;994.62;;;5.94;30.70
45071;BME280;30836;48.906;9.140;2024-01-10T02:21:26;994.62;;;5.93;30.69
45071;BME280;30836;48.906;9.140;2024-01-10T02:22:26;994.60;;;5.94;30.62
45071;BME280;30836;48.906;9.140;2024-01-10T02:23:27;994.64;;;5.95;30.61
45071;BME280;30836;48.906;9.140;2024-01-10T02:24:27;994.60;;;5.97;30.70
45071;BME280;30836;48.906;9.140;2024-01-10T02:25:28;994.58;;;5.96;30.86
45071;BME280;30836;48.906;9.140;2024-01-10T02:26:28;994.58;;;5.94;30.83
45071;BME280;30836;48.906;9.140;2024-01-10T02:27:28;994.56;;;5.94;30.84
45071;BME280;30836;48.906;9.140;2024-01-10T02:28:29;994.56;;;5.97;30.78
45071;BME280;30836;48.906;9.140;2024-01-10T02:29:30;994.54;;;6.00;30.80
45071;BME280;30836;48.906;9.140;2024-01-10T02:30:30;994.52;;;6.04;30.72
45071;BME280;30836;48.906;9.140;2024-01-10T02:31:31;994.50;;;6.06;30.72
45071;BME280;30836;48.906;9.140;2024-01-10T02:32:31;994.50;;;6.06;30.74
45071;BME280;30836;48.906;9.140;2024-01-10T02:33:32;994.50;;;6.07;30.67
45071;BME280;30836;48.906;9.140;2024-01-10T02:34:33;994.48;;;6.08;30.61
45071;BME280;30836;48.906;9.140;2024-01-10T02:35:33;994.48;;;6.09;30.60
45071;BME280;30836;48.906;9.140;2024-01-10T02:36:33;994.50;;;6.09;30.65
45071;BME280;30836;48.906;9.140;2024-01-10T02:37:34;994.52;;;6.09;30.70
45071;BME280;30836;48.906;9.140;2024-01-10T02:38:34;994.50;;;6.10;30.70
45071;BME280;30836;48.906;9.140;2024-01-10T02:39:35;994.50;;;6.10;30.71
45071;BME280;30836;48.906;9.140;2024-01-10T02:40:35;994.50;;;6.10;30.69
45071;BME280;30836;48.906;9.140;2024-01-10T02:41:35;994.48;;;6.10;30.70
45071;BME280;30836;48.906;9.140;2024-01-10T02:42:36;994.44;;;6.10;30.76
45071;BME280;30836;48.906;9.140;2024-01-10T02:43:36;994.48;;;6.09;30.75
45071;BME280;30836;48.906;9.140;2024-01-10T02:44:37;994.44;;;6.10;30.73
45071;BME280;30836;48.906;9.140;2024-01-10T02:45:37;994.44;;;6.08;30.79
45071;BME280;30836;48.906;9.140;2024-01-10T02:46:38;994.44;;;6.06;30.89
45071;BME280;30836;48.906;9.140;2024-01-10T02:47:38;994.44;;;6.04;30.90
45071;BME280;30836;48.906;9.140;2024-01-10T02:48:39;994.42;;;6.05;30.83
45071;BME280;30836;48.906;9.140;2024-01-10T02:49:39;994.42;;;6.07;30.83
45071;BME280;30836;48.906;9.140;2024-01-10T02:50:40;994.40;;;6.07;30.86
45071;BME280;30836;48.906;9.140;2024-01-10T02:51:40;994.38;;;6.05;30.94
45071;BME280;30836;48.906;9.140;2024-01-10T02:52:41;994.36;;;6.03;30.97
45071;BME280;30836;48.906;9.140;2024-01-10T02:53:41;994.36;;;6.03;30.95
45071;BME280;30836;48.906;9.140;2024-01-10T02:54:42;994.38;;;6.03;30.99
45071;BME280;30836;48.906;9.140;2024-01-10T02:55:42;994.40;;;6.01;31.10
45071;BME280;30836;48.906;9.140;2024-01-10T02:56:43;994.40;;;5.98;31.19
45071;BME280;30836;48.906;9.140;2024-01-10T02:57:43;994.38;;;5.98;31.18
45071;BME280;30836;48.906;9.140;2024-01-10T02:58:44;994.38;;;5.99;31.20
45071;BME280;30836;48.906;9.140;2024-01-10T02:59:44;994.38;;;6.00;31.23
45071;BME280;30836;48.906;9.140;2024-01-10T03:00:45;994.34;;;6.02;31.19
45071;BME280;30836;48.906;9.140;2024-01-10T03:01:45;994.36;;;6.04;31.22
45071;BME280;30836;48.906;9.140;2024-01-10T03:02:45;994.34;;;6.04;31.24
45071;BME280;30836;48.906;9.140;2024-01-10T03:03:46;994.34;;;6.05;31.21
45071;BME280;30836;48.906;9.140;2024-01-10T03:04:47;994.34;;;6.06;31.20
45071;BME280;30836;48.906;9.140;2024-01-10T03:05:48;994.34;;;6.06;31.23
45071;BME280;30836;48.906;9.140;2024-01-10T03:06:48;994.32;;;6.07;31.31
45071;BME280;30836;48.906;9.140;2024-01-10T03:07:49;994.32;;;6.08;31.27
45071;BME280;30836;48.906;9.140;2024-01-10T03:08:49;994.32;;;6.09;31.24
45071;BME280;30836;48.906;9.140;2024-01-10T03:09:49;994.32;;;6.09;31.26
45071;BME280;30836;48.906;9.140;2024-01-10T03:10:50;994.36;;;6.09;31.26
45071;BME280;30836;48.906;9.140;2024-01-10T03:11:50;994.36;;;6.10;31.29
45071;BME280;30836;48.906;9.140;2024-01-10T03:12:51;994.36;;;6.11;31.27
45071;BME280;30836;48.906;9.140;2024-01-10T03:13:53;994.32;;;6.11;31.27
45071;BME280;30836;48.906;9.140;2024-01-10T03:15:02;994.32;;;6.12;31.26
45071;BME280;30836;48.906;9.140;2024-01-10T03:16:03;994.34;;;6.12;31.34
45071;BME280;30836;48.906;9.140;2024-01-10T03:17:03;994.32;;;6.11;31.29
45071;BME280;30836;48.906;9.140;2024-01-10T03:18:04;994.30;;;6.10;31.33
45071;BME280;30836;48.906;9.140;2024-01-10T03:19:04;994.29;;;6.07;31.42
45071;BME280;30836;48.906;9.140;2024-01-10T03:20:05;994.29;;;6.06;31.44
45071;BME280;30836;48.906;9.140;2024-01-10T03:21:07;994.29;;;6.06;31.44
45071;BME280;30836;48.906;9.140;2024-01-10T03:22:08;994.27;;;6.05;31.44
45071;BME280;30836;48.906;9.140;2024-01-10T03:23:08;994.25;;;6.05;31.47
45071;BME280;30836;48.906;9.140;2024-01-10T03:24:08;994.25;;;6.05;31.42
45071;BME280;30836;48.906;9.140;2024-01-10T03:25:09;994.23;;;6.02;31.33
45071;BME280;30836;48.906;9.140;2024-01-10T03:26:09;994.25;;;5.99;31.25
45071;BME280;30836;48.906;9.140;2024-01-10T03:27:10;994.25;;;5.97;31.25
45071;BME280;30836;48.906;9.140;2024-01-10T03:28:10;994.21;;;5.95;31.31
45071;BME280;30836;48.906;9.140;2024-01-10T03:29:11;994.21;;;5.91;31.29
45071;BME280;30836;48.906;9.140;2024-01-10T03:30:11;994.19;;;5.85;31.32
45071;BME280;30836;48.906;9.140;2024-01-10T03:31:12;994.17;;;5.79;31.33
45071;BME280;30836;48.906;9.140;2024-01-10T03:32:12;994.19;;;5.77;31.28
45071;BME280;30836;48.906;9.140;2024-01-10T03:33:13;994.17;;;5.75;31.25
45071;BME280;30836;48.906;9.140;2024-01-10T03:34:13;994.19;;;5.74;31.24
45071;BME280;30836;48.906;9.140;2024-01-10T03:35:13;994.15;;;5.74;31.28
45071;BME280;30836;48.906;9.140;2024-01-10T03:36:17;994.17;;;5.74;31.28
45071;BME280;30836;48.906;9.140;2024-01-10T03:37:18;994.15;;;5.74;31.20
45071;BME280;30836;48.906;9.140;2024-01-10T03:38:18;994.17;;;5.74;31.18
45071;BME280;30836;48.906;9.140;2024-01-10T03:39:18;994.19;;;5.72;31.17
45071;BME280;30836;48.906;9.140;2024-01-10T03:40:19;994.17;;;5.70;31.14
45071;BME280;30836;48.906;9.140;2024-01-10T03:41:20;994.13;;;5.71;31.09
45071;BME280;30836;48.906;9.140;2024-01-10T03:42:20;994.15;;;5.71;31.08
45071;BME280;30836;48.906;9.140;2024-01-10T03:43:21;994.15;;;5.71;31.13
45071;BME280;30836;48.906;9.140;2024-01-10T03:44:21;994.11;;;5.70;31.10
45071;BME280;30836;48.906;9.140;2024-01-10T03:45:22;994.11;;;5.67;31.12
45071;BME280;30836;48.906;9.140;2024-01-10T03:46:22;994.13;;;5.66;31.18
45071;BME280;30836;48.906;9.140;2024-01-10T03:47:23;994.15;;;5.68;31.17
45071;BME280;30836;48.906;9.140;2024-01-10T03:48:23;994.11;;;5.71;31.09
45071;BME280;30836;48.906;9.140;2024-01-10T03:49:23;994.13;;;5.72;31.12
45071;BME280;30836;48.906;9.140;2024-01-10T03:50:24;994.15;;;5.74;31.19
45071;BME280;30836;48.906;9.140;2024-01-10T03:51:24;994.15;;;5.75;31.16
45071;BME280;30836;48.906;9.140;2024-01-10T03:52:25;994.17;;;5.74;31.13
45071;BME280;30836;48.906;9.140;2024-01-10T03:53:26;994.19;;;5.71;31.18
45071;BME280;30836;48.906;9.140;2024-01-10T03:54:27;994.19;;;5.71;31.25
45071;BME280;30836;48.906;9.140;2024-01-10T03:55:27;994.19;;;5.73;31.11
45071;BME280;30836;48.906;9.140;2024-01-10T03:56:28;994.17;;;5.73;31.18
45071;BME280;30836;48.906;9.140;2024-01-10T03:57:28;994.17;;;5.74;31.19
45071;BME280;30836;48.906;9.140;2024-01-10T03:58:28;994.15;;;5.76;31.19
45071;BME280;30836;48.906;9.140;2024-01-10T03:59:29;994.17;;;5.78;31.19
45071;BME280;30836;48.906;9.140;2024-01-10T04:00:29;994.17;;;5.80;31.16
45071;BME280;30836;48.906;9.140;2024-01-10T04:01:30;994.21;;;5.83;31.16
45071;BME280;30836;48.906;9.140;2024-01-10T04:02:30;994.19;;;5.87;31.11
45071;BME280;30836;48.906;9.140;2024-01-10T04:03:30;994.19;;;5.90;31.11
45071;BME280;30836;48.906;9.140;2024-01-10T04:04:31;994.21;;;5.93;31.12
45071;BME280;30836;48.906;9.140;2024-01-10T04:05:31;994.19;;;5.95;31.05
45071;BME280;30836;48.906;9.140;2024-01-10T04:06:32;994.19;;;5.93;31.06
45071;BME280;30836;48.906;9.140;2024-01-10T04:07:32;994.21;;;5.92;31.09
45071;BME280;30836;48.906;9.140;2024-01-10T04:08:33;994.23;;;5.90;31.04
45071;BME280;30836;48.906;9.140;2024-01-10T04:09:33;994.23;;;5.88;31.03
45071;BME280;30836;48.906;9.140;2024-01-10T04:10:33;994.27;;;5.89;30.96
45071;BME280;30836;48.906;9.140;2024-01-10T04:11:34;994.29;;;5.91;30.92
45071;BME280;30836;48.906;9.140;2024-01-10T04:12:34;994.27;;;5.93;30.94
45071;BME280;30836;48.906;9.140;2024-01-10T04:13:35;994.27;;;5.92;31.03
45071;BME280;30836;48.906;9.140;2024-01-10T04:14:35;994.23;;;5.91;30.99
45071;BME280;30836;48.906;9.140;2024-01-10T04:15:36;994.23;;;5.88;31.03
45071;BME280;30836;48.906;9.140;2024-01-10T04:16:36;994.23;;;5.83;31.08
45071;BME280;30836;48.906;9.140;2024-01-10T04:17:36;994.23;;;5.81;31.09
45071;BME280;30836;48.906;9.140;2024-01-10T04:18:37;994.27;;;5.82;31.07
45071;BME280;30836;48.906;9.140;2024-01-10T04:19:37;994.29;;;5.84;31.00
45071;BME280;30836;48.906;9.140;2024-01-10T04:20:38;994.29;;;5.85;30.97
45071;BME280;30836;48.906;9.140;2024-01-10T04:21:38;994.29;;;5.86;30.98
45071;BME280;30836;48.906;9.140;2024-01-10T04:22:39;994.30;;;5.88;31.05
45071;BME280;30836;48.906;9.140;2024-01-10T04:23:39;994.29;;;5.90;31.08
45071;BME280;30836;48.906;9.140;2024-01-10T04:24:40;994.29;;;5.90;31.05
45071;BME280;30836;48.906;9.140;2024-01-10T04:25:40;994.29;;;5.90;31.03
45071;BME280;30836;48.906;9.140;2024-01-10T04:26:40;994.29;;;5.88;31.07
45071;BME280;30836;48.906;9.140;2024-01-10T04:27:41;994.27;;;5.85;31.05
45071;BME280;30836;48.906;9.140;2024-01-10T04:28:41;994.25;;;5.83;31.05
45071;BME280;30836;48.906;9.140;2024-01-10T04:29:42;994.30;;;5.79;31.10
45071;BME280;30836;48.906;9.140;2024-01-10T04:30:42;994.29;;;5.78;31.05
45071;BME280;30836;48.906;9.140;2024-01-10T04:31:42;994.25;;;5.79;31.10
45071;BME280;30836;48.906;9.140;2024-01-10T04:32:43;994.25;;;5.80;31.17
45071;BME280;30836;48.906;9.140;2024-01-10T04:33:43;994.29;;;5.82;31.18
45071;BME280;30836;48.906;9.140;2024-01-10T04:34:44;994.29;;;5.86;31.16
45071;BME280;30836;48.906;9.140;2024-01-10T04:35:44;994.27;;;5.91;31.14
45071;BME280;30836;48.906;9.140;2024-01-10T04:36:45;994.25;;;5.94;31.23
45071;BME280;30836;48.906;9.140;2024-01-10T04:37:45;994.27;;;5.96;31.14
45071;BME280;30836;48.906;9.140;2024-01-10T04:38:46;994.25;;;5.97;31.12
45071;BME280;30836;48.906;9.140;2024-01-10T04:39:46;994.23;;;5.98;31.10
45071;BME280;30836;48.906;9.140;2024-01-10T04:40:46;994.21;;;5.99;31.10
45071;BME280;30836;48.906;9.140;2024-01-10T04:41:47;994.19;;;6.01;31.08
45071;BME280;30836;48.906;9.140;2024-01-10T04:42:49;994.21;;;6.00;31.25
45071;BME280;30836;48.906;9.140;2024-01-10T04:43:49;994.19;;;5.99;31.23
45071;BME280;30836;48.906;9.140;2024-01-10T04:44:49;994.19;;;6.00;31.02
45071;BME280;30836;48.906;9.140;2024-01-10T04:45:50;994.19;;;6.01;31.14
45071;BME280;30836;48.906;9.140;2024-01-10T04:46:50;994.21;;;6.02;31.11
45071;BME280;30836;48.906;9.140;2024-01-10T04:47:51;994.21;;;6.02;31.08
45071;BME280;30836;48.906;9.140;2024-01-10T04:48:51;994.21;;;6.01;31.11
45071;BME280;30836;48.906;9.140;2024-01-10T04:49:51;994.21;;;6.01;31.17
45071;BME280;30836;48.906;9.140;2024-01-10T04:50:52;994.23;;;6.02;31.17
45071;BME280;30836;48.906;9.140;2024-01-10T04:51:52;994.23;;;6.04;31.09
45071;BME280;30836;48.906;9.140;2024-01-10T04:52:53;994.23;;;6.06;31.07
45071;BME280;30836;48.906;9.140;2024-01-10T04:53:53;994.21;;;6.08;31.06
45071;BME280;30836;48.906;9.140;2024-01-10T04:54:54;994.25;;;6.10;31.12
45071;BME280;30836;48.906;9.140;2024-01-10T04:55:54;994.25;;;6.11;31.07
45071;BME280;30836;48.906;9.140;2024-01-10T04:56:54;994.27;;;6.11;31.04
45071;BME280;30836;48.906;9.140;2024-01-10T04:57:55;994.23;;;6.09;31.18
45071;BME280;30836;48.906;9.140;2024-01-10T04:58:55;994.23;;;6.08;31.17
45071;BME280;30836;48.906;9.140;2024-01-10T04:59:56;994.25;;;6.08;31.15
45071;BME280;30836;48.906;9.140;2024-01-10T05:00:56;994.25;;;6.08;31.18
45071;BME280;30836;48.906;9.140;2024-01-10T05:01:56;994.27;;;6.04;31.31
45071;BME280;30836;48.906;9.140;2024-01-10T05:02:57;994.27;;;6.01;31.43
45071;BME280;30836;48.906;9.140;2024-01-10T05:03:57;994.25;;;6.01;31.40
45071;BME280;30836;48.906;9.140;2024-01-10T05:04:58;994.23;;;5.99;31.43
45071;BME280;30836;48.906;9.140;2024-01-10T05:05:58;994.21;;;5.96;31.47
45071;BME280;30836;48.906;9.140;2024-01-10T05:06:59;994.21;;;5.93;31.50
45071;BME280;30836;48.906;9.140;2024-01-10T05:07:59;994.21;;;5.90;31.57
45071;BME280;30836;48.906;9.140;2024-01-10T05:09:00;994.23;;;5.90;31.59
45071;BME280;30836;48.906;9.140;2024-01-10T05:10:00;994.21;;;5.93;31.52
45071;BME280;30836;48.906;9.140;2024-01-10T05:11:00;994.25;;;5.97;31.44
45071;BME280;30836;48.906;9.140;2024-01-10T05:12:01;994.25;;;5.99;31.40
45071;BME280;30836;48.906;9.140;2024-01-10T05:13:01;994.27;;;5.99;31.40
45071;BME280;30836;48.906;9.140;2024-01-10T05:14:02;994.27;;;5.98;31.39
45071;BME280;30836;48.906;9.140;2024-01-10T05:15:03;994.25;;;5.95;31.39
45071;BME280;30836;48.906;9.140;2024-01-10T05:16:03;994.29;;;5.95;31.35
45071;BME280;30836;48.906;9.140;2024-01-10T05:17:04;994.29;;;5.97;31.25
45071;BME280;30836;48.906;9.140;2024-01-10T05:18:05;994.29;;;6.00;31.32
45071;BME280;30836;48.906;9.140;2024-01-10T05:19:06;994.29;;;6.02;31.32
45071;BME280;30836;48.906;9.140;2024-01-10T05:20:07;994.29;;;6.04;31.32
45071;BME280;30836;48.906;9.140;2024-01-10T05:21:07;994.27;;;6.05;31.25
45071;BME280;30836;48.906;9.140;2024-01-10T05:22:08;994.29;;;6.07;31.20
45071;BME280;30836;48.906;9.140;2024-01-10T05:23:08;994.27;;;6.07;31.13
45071;BME280;30836;48.906;9.140;2024-01-10T05:24:09;994.27;;;6.06;31.28
45071;BME280;30836;48.906;9.140;2024-01-10T05:25:09;994.27;;;6.06;31.38
45071;BME280;30836;48.906;9.140;2024-01-10T05:26:10;994.30;;;6.08;31.33
45071;BME280;30836;48.906;9.140;2024-01-10T05:27:10;994.27;;;6.10;31.25
45071;BME280;30836;48.906;9.140;2024-01-10T05:28:11;994.27;;;6.10;31.18
45071;BME280;30836;48.906;9.140;2024-01-10T05:29:11;994.29;;;6.11;31.26
45071;BME280;30836;48.906;9.140;2024-01-10T05:30:12;994.29;;;6.13;31.27
45071;BME280;30836;48.906;9.140;2024-01-10T05:31:12;994.29;;;6.15;31.25
45071;BME280;30836;48.906;9.140;2024-01-10T05:32:12;994.27;;;6.16;31.33